sensor_id;sensor_type;location;lat;lon;timestamp;P1;durP1;ratioP1;P2;durP2;ratioP2
69970;SDS011;57301;50.328;8.542;2024-01-11T00:00:36;53.33;;;21.83;;
69970;SDS011;57301;50.328;8.542;2024-01-11T00:03:02;51.87;;;19.67;;
69970;SDS011;57301;50.328;8.542;2024-01-11T00:05:29;47.20;;;18.38;;
69970;SDS011;57301;50.328;8.542;2024-01-11T00:07:56;48.05;;;19.63;;
69970;SDS011;57301;50.328;8.542;2024-01-11T00:10:23;40.33;;;17.42;;
69970;SDS011;57301;50.328;8.542;2024-01-11T00:12:49;51.80;;;18.92;;
69970;SDS011;57301;50.328;8.542;2024-01-11T00:15:16;44.30;;;18.53;;
69970;SDS011;57301;50.328;8.542;2024-01-11T00:17:42;43.38;;;18.17;;
69970;SDS011;57301;50.328;8.542;2024-01-11T00:20:09;45.58;;;18.65;;
69970;SDS011;57301;50.328;8.542;2024-01-11T00:22:37;49.10;;;19.52;;
69970;SDS011;57301;50.328;8.542;2024-01-11T00:25:04;41.15;;;17.73;;
69970;SDS011;57301;50.328;8.542;2024-01-11T00:27:31;45.33;;;18.53;;
69970;SDS011;57301;50.328;8.542;2024-01-11T00:29:57;45.05;;;18.73;;
69970;SDS011;57301;50.328;8.542;2024-01-11T00:32:24;44.22;;;18.92;;
69970;SDS011;57301;50.328;8.542;2024-01-11T00:34:50;45.10;;;18.80;;
69970;SDS011;57301;50.328;8.542;2024-01-11T00:37:17;46.58;;;18.35;;
69970;SDS011;57301;50.328;8.542;2024-01-11T00:39:43;48.33;;;18.37;;
69970;SDS011;57301;50.328;8.542;2024-01-11T00:42:10;46.28;;;18.23;;
69970;SDS011;57301;50.328;8.542;2024-01-11T00:44:36;42.15;;;17.55;;
69970;SDS011;57301;50.328;8.542;2024-01-11T00:47:03;47.40;;;19.77;;
69970;SDS011;57301;50.328;8.542;2024-01-11T00:49:30;41.08;;;16.90;;
69970;SDS011;57301;50.328;8.542;2024-01-11T00:51:56;42.33;;;16.87;;
69970;SDS011;57301;50.328;8.542;2024-01-11T00:54:23;48.00;;;18.25;;
69970;SDS011;57301;50.328;8.542;2024-01-11T00:56:51;47.88;;;19.25;;
69970;SDS011;57301;50.328;8.542;2024-01-11T00:59:17;52.13;;;20.02;;
69970;SDS011;57301;50.328;8.542;2024-01-11T01:01:50;47.30;;;18.95;;
69970;SDS011;57301;50.328;8.542;2024-01-11T01:04:17;46.83;;;18.73;;
69970;SDS011;57301;50.328;8.542;2024-01-11T01:06:43;46.10;;;17.85;;
69970;SDS011;57301;50.328;8.542;2024-01-11T01:09:10;44.03;;;18.85;;
69970;SDS011;57301;50.328;8.542;2024-01-11T01:11:37;43.20;;;18.45;;
69970;SDS011;57301;50.328;8.542;2024-01-11T01:14:04;45.47;;;18.15;;
69970;SDS011;57301;50.328;8.542;2024-01-11T01:16:31;44.33;;;18.43;;
69970;SDS011;57301;50.328;8.542;2024-01-11T01:18:57;46.55;;;19.08;;
69970;SDS011;57301;50.328;8.542;2024-01-11T01:21:24;43.42;;;19.33;;
69970;SDS011;57301;50.328;8.542;2024-01-11T01:23:51;44.75;;;16.75;;
69970;SDS011;57301;50.328;8.542;2024-01-11T01:26:17;43.58;;;18.77;;
69970;SDS011;57301;50.328;8.542;2024-01-11T01:28:44;45.30;;;18.90;;
69970;SDS011;57301;50.328;8.542;2024-01-11T01:31:11;44.97;;;19.08;;
69970;SDS011;57301;50.328;8.542;2024-01-11T01:33:38;44.13;;;19.65;;
69970;SDS011;57301;50.328;8.542;2024-01-11T01:36:12;45.45;;;19.23;;
69970;SDS011;57301;50.328;8.542;2024-01-11T01:38:39;44.40;;;17.92;;
69970;SDS011;57301;50.328;8.542;2024-01-11T01:41:05;42.77;;;17.33;;
69970;SDS011;57301;50.328;8.542;2024-01-11T01:43:32;45.25;;;18.05;;
69970;SDS011;57301;50.328;8.542;2024-01-11T01:45:58;46.30;;;18.90;;
69970;SDS011;57301;50.328;8.542;2024-01-11T01:48:25;48.92;;;18.63;;
69970;SDS011;57301;50.328;8.542;2024-01-11T01:50:53;52.78;;;19.42;;
69970;SDS011;57301;50.328;8.542;2024-01-11T01:53:21;45.23;;;18.17;;
69970;SDS011;57301;50.328;8.542;2024-01-11T01:55:49;44.05;;;19.27;;
69970;SDS011;57301;50.328;8.542;2024-01-11T01:58:18;42.28;;;17.17;;
69970;SDS011;57301;50.328;8.542;2024-01-11T02:00:45;48.67;;;18.80;;
69970;SDS011;57301;50.328;8.542;2024-01-11T02:03:15;46.03;;;18.88;;
69970;SDS011;57301;50.328;8.542;2024-01-11T02:05:42;41.70;;;17.80;;
69970;SDS011;57301;50.328;8.542;2024-01-11T02:08:11;45.83;;;18.27;;
69970;SDS011;57301;50.328;8.542;2024-01-11T02:10:41;44.90;;;18.50;;
69970;SDS011;57301;50.328;8.542;2024-01-11T02:13:09;39.60;;;16.77;;
69970;SDS011;57301;50.328;8.542;2024-01-11T02:15:36;55.13;;;19.23;;
69970;SDS011;57301;50.328;8.542;2024-01-11T02:18:03;49.10;;;17.63;;
69970;SDS011;57301;50.328;8.542;2024-01-11T02:20:30;48.50;;;18.83;;
69970;SDS011;57301;50.328;8.542;2024-01-11T02:22:58;44.05;;;17.83;;
69970;SDS011;57301;50.328;8.542;2024-01-11T02:25:31;49.00;;;18.23;;
69970;SDS011;57301;50.328;8.542;2024-01-11T02:27:58;50.13;;;19.30;;
69970;SDS011;57301;50.328;8.542;2024-01-11T02:30:24;43.33;;;16.53;;
69970;SDS011;57301;50.328;8.542;2024-01-11T02:32:51;50.90;;;19.98;;
69970;SDS011;57301;50.328;8.542;2024-01-11T02:35:18;49.60;;;18.38;;
69970;SDS011;57301;50.328;8.542;2024-01-11T02:37:45;45.45;;;18.40;;
69970;SDS011;57301;50.328;8.542;2024-01-11T02:40:13;43.97;;;17.73;;
69970;SDS011;57301;50.328;8.542;2024-01-11T02:42:40;42.20;;;17.67;;
69970;SDS011;57301;50.328;8.542;2024-01-11T02:45:06;40.33;;;16.90;;
69970;SDS011;57301;50.328;8.542;2024-01-11T02:47:33;45.00;;;18.00;;
69970;SDS011;57301;50.328;8.542;2024-01-11T02:50:00;45.42;;;18.23;;
69970;SDS011;57301;50.328;8.542;2024-01-11T02:52:26;44.63;;;17.45;;
69970;SDS011;57301;50.328;8.542;2024-01-11T02:54:53;45.03;;;19.37;;
69970;SDS011;57301;50.328;8.542;2024-01-11T02:57:19;51.00;;;19.33;;
69970;SDS011;57301;50.328;8.542;2024-01-11T02:59:46;46.28;;;18.08;;
69970;SDS011;57301;50.328;8.542;2024-01-11T03:02:12;48.00;;;19.67;;
69970;SDS011;57301;50.328;8.542;2024-01-11T03:04:39;46.72;;;19.35;;
69970;SDS011;57301;50.328;8.542;2024-01-11T03:07:05;43.17;;;17.47;;
69970;SDS011;57301;50.328;8.542;2024-01-11T03:09:32;48.13;;;20.50;;
69970;SDS011;57301;50.328;8.542;2024-01-11T03:12:00;47.45;;;19.13;;
69970;SDS011;57301;50.328;8.542;2024-01-11T03:14:26;47.72;;;18.48;;
69970;SDS011;57301;50.328;8.542;2024-01-11T03:16:53;46.67;;;19.55;;
69970;SDS011;57301;50.328;8.542;2024-01-11T03:19:19;46.07;;;18.33;;
69970;SDS011;57301;50.328;8.542;2024-01-11T03:21:46;39.67;;;17.60;;
69970;SDS011;57301;50.328;8.542;2024-01-11T03:24:13;42.55;;;16.58;;
69970;SDS011;57301;50.328;8.542;2024-01-11T03:26:40;43.33;;;18.10;;
69970;SDS011;57301;50.328;8.542;2024-01-11T03:29:07;44.47;;;18.58;;
69970;SDS011;57301;50.328;8.542;2024-01-11T03:31:34;42.13;;;17.23;;
69970;SDS011;57301;50.328;8.542;2024-01-11T03:34:00;45.73;;;16.97;;
69970;SDS011;57301;50.328;8.542;2024-01-11T03:36:27;49.42;;;19.20;;
69970;SDS011;57301;50.328;8.542;2024-01-11T03:38:54;44.00;;;17.85;;
69970;SDS011;57301;50.328;8.542;2024-01-11T03:41:20;41.65;;;16.40;;
69970;SDS011;57301;50.328;8.542;2024-01-11T03:43:47;44.55;;;18.08;;
69970;SDS011;57301;50.328;8.542;2024-01-11T03:46:13;36.37;;;14.40;;
69970;SDS011;57301;50.328;8.542;2024-01-11T03:48:39;41.95;;;17.08;;
69970;SDS011;57301;50.328;8.542;2024-01-11T03:51:06;37.65;;;15.57;;
69970;SDS011;57301;50.328;8.542;2024-01-11T03:53:36;43.80;;;17.20;;
69970;SDS011;57301;50.328;8.542;2024-01-11T03:56:04;38.90;;;16.00;;
69970;SDS011;57301;50.328;8.542;2024-01-11T03:58:31;42.37;;;16.03;;
69970;SDS011;57301;50.328;8.542;2024-01-11T04:00:59;44.63;;;17.08;;
69970;SDS011;57301;50.328;8.542;2024-01-11T04:03:26;44.55;;;18.50;;
69970;SDS011;57301;50.328;8.542;2024-01-11T04:05:53;40.15;;;17.08;;
69970;SDS011;57301;50.328;8.542;2024-01-11T04:08:19;35.75;;;15.48;;
69970;SDS011;57301;50.328;8.542;2024-01-11T04:10:46;43.17;;;15.43;;
69970;SDS011;57301;50.328;8.542;2024-01-11T04:13:12;40.65;;;16.95;;
69970;SDS011;57301;50.328;8.542;2024-01-11T04:15:39;39.40;;;16.38;;
69970;SDS011;57301;50.328;8.542;2024-01-11T04:18:05;46.05;;;16.58;;
69970;SDS011;57301;50.328;8.542;2024-01-11T04:20:32;41.50;;;16.60;;
69970;SDS011;57301;50.328;8.542;2024-01-11T04:22:58;50.27;;;17.50;;
69970;SDS011;57301;50.328;8.542;2024-01-11T04:25:25;42.63;;;17.08;;
69970;SDS011;57301;50.328;8.542;2024-01-11T04:27:52;43.90;;;17.50;;
69970;SDS011;57301;50.328;8.542;2024-01-11T04:30:19;40.85;;;16.30;;
69970;SDS011;57301;50.328;8.542;2024-01-11T04:32:45;45.97;;;16.10;;
69970;SDS011;57301;50.328;8.542;2024-01-11T04:35:12;44.73;;;17.00;;
69970;SDS011;57301;50.328;8.542;2024-01-11T04:37:39;41.65;;;15.63;;
69970;SDS011;57301;50.328;8.542;2024-01-11T04:40:06;39.33;;;17.85;;
69970;SDS011;57301;50.328;8.542;2024-01-11T04:42:33;39.92;;;17.23;;
69970;SDS011;57301;50.328;8.542;2024-01-11T04:44:59;44.05;;;16.75;;
69970;SDS011;57301;50.328;8.542;2024-01-11T04:47:26;47.57;;;16.67;;
69970;SDS011;57301;50.328;8.542;2024-01-11T04:49:53;46.20;;;18.25;;
69970;SDS011;57301;50.328;8.542;2024-01-11T04:52:19;48.97;;;18.20;;
69970;SDS011;57301;50.328;8.542;2024-01-11T04:54:46;40.50;;;17.25;;
69970;SDS011;57301;50.328;8.542;2024-01-11T04:57:12;49.58;;;17.60;;
69970;SDS011;57301;50.328;8.542;2024-01-11T04:59:39;41.77;;;16.00;;
69970;SDS011;57301;50.328;8.542;2024-01-11T05:02:05;45.53;;;16.13;;
69970;SDS011;57301;50.328;8.542;2024-01-11T05:04:32;43.70;;;18.23;;
69970;SDS011;57301;50.328;8.542;2024-01-11T05:06:59;45.28;;;16.52;;
69970;SDS011;57301;50.328;8.542;2024-01-11T05:09:25;40.70;;;16.30;;
69970;SDS011;57301;50.328;8.542;2024-01-11T05:11:51;44.03;;;16.30;;
69970;SDS011;57301;50.328;8.542;2024-01-11T05:14:18;40.85;;;15.68;;
69970;SDS011;57301;50.328;8.542;2024-01-11T05:16:45;39.55;;;15.95;;
69970;SDS011;57301;50.328;8.542;2024-01-11T05:19:11;35.67;;;15.60;;
69970;SDS011;57301;50.328;8.542;2024-01-11T05:21:38;41.55;;;16.38;;
69970;SDS011;57301;50.328;8.542;2024-01-11T05:24:04;41.03;;;15.57;;
69970;SDS011;57301;50.328;8.542;2024-01-11T05:26:34;39.90;;;15.90;;
69970;SDS011;57301;50.328;8.542;2024-01-11T05:29:01;40.35;;;16.38;;
69970;SDS011;57301;50.328;8.542;2024-01-11T05:31:30;36.72;;;15.13;;
69970;SDS011;57301;50.328;8.542;2024-01-11T05:33:57;43.92;;;16.38;;
69970;SDS011;57301;50.328;8.542;2024-01-11T05:36:24;51.30;;;19.13;;
69970;SDS011;57301;50.328;8.542;2024-01-11T05:38:50;50.20;;;20.38;;
69970;SDS011;57301;50.328;8.542;2024-01-11T05:41:17;41.20;;;16.42;;
69970;SDS011;57301;50.328;8.542;2024-01-11T05:43:43;45.45;;;17.88;;
69970;SDS011;57301;50.328;8.542;2024-01-11T05:46:10;41.60;;;17.20;;
69970;SDS011;57301;50.328;8.542;2024-01-11T05:48:37;46.17;;;18.37;;
69970;SDS011;57301;50.328;8.542;2024-01-11T05:51:03;52.50;;;17.48;;
69970;SDS011;57301;50.328;8.542;2024-01-11T05:53:30;45.05;;;17.10;;
69970;SDS011;57301;50.328;8.542;2024-01-11T05:55:59;45.78;;;16.38;;
69970;SDS011;57301;50.328;8.542;2024-01-11T05:58:26;43.92;;;16.48;;
69970;SDS011;57301;50.328;8.542;2024-01-11T06:00:52;39.53;;;15.77;;
69970;SDS011;57301;50.328;8.542;2024-01-11T06:03:19;37.88;;;14.70;;
69970;SDS011;57301;50.328;8.542;2024-01-11T06:05:45;40.55;;;16.80;;
69970;SDS011;57301;50.328;8.542;2024-01-11T06:08:12;38.53;;;15.88;;
69970;SDS011;57301;50.328;8.542;2024-01-11T06:10:39;41.28;;;17.58;;
69970;SDS011;57301;50.328;8.542;2024-01-11T06:13:06;40.80;;;15.77;;
69970;SDS011;57301;50.328;8.542;2024-01-11T06:15:32;40.90;;;16.63;;
69970;SDS011;57301;50.328;8.542;2024-01-11T06:17:59;35.95;;;16.85;;
69970;SDS011;57301;50.328;8.542;2024-01-11T06:20:27;42.97;;;15.82;;
69970;SDS011;57301;50.328;8.542;2024-01-11T06:22:53;44.28;;;15.40;;
69970;SDS011;57301;50.328;8.542;2024-01-11T06:25:20;36.07;;;16.57;;
69970;SDS011;57301;50.328;8.542;2024-01-11T06:27:47;42.50;;;16.38;;
69970;SDS011;57301;50.328;8.542;2024-01-11T06:30:14;41.00;;;16.20;;
69970;SDS011;57301;50.328;8.542;2024-01-11T06:32:40;48.65;;;17.75;;
69970;SDS011;57301;50.328;8.542;2024-01-11T06:35:07;39.70;;;17.20;;
69970;SDS011;57301;50.328;8.542;2024-01-11T06:37:34;46.60;;;17.13;;
69970;SDS011;57301;50.328;8.542;2024-01-11T06:40:01;62.70;;;26.50;;
69970;SDS011;57301;50.328;8.542;2024-01-11T06:42:30;47.83;;;20.92;;
69970;SDS011;57301;50.328;8.542;2024-01-11T06:44:57;42.08;;;17.20;;
69970;SDS011;57301;50.328;8.542;2024-01-11T06:47:23;41.80;;;17.08;;
69970;SDS011;57301;50.328;8.542;2024-01-11T06:49:50;42.13;;;16.93;;
69970;SDS011;57301;50.328;8.542;2024-01-11T06:52:17;50.80;;;22.58;;
69970;SDS011;57301;50.328;8.542;2024-01-11T06:54:43;46.53;;;20.13;;
69970;SDS011;57301;50.328;8.542;2024-01-11T06:57:10;45.95;;;18.05;;
69970;SDS011;57301;50.328;8.542;2024-01-11T06:59:36;49.33;;;18.75;;
69970;SDS011;57301;50.328;8.542;2024-01-11T07:02:03;45.13;;;18.60;;
69970;SDS011;57301;50.328;8.542;2024-01-11T07:04:30;45.15;;;18.20;;
69970;SDS011;57301;50.328;8.542;2024-01-11T07:06:59;48.17;;;19.08;;
69970;SDS011;57301;50.328;8.542;2024-01-11T07:09:26;48.85;;;17.75;;
69970;SDS011;57301;50.328;8.542;2024-01-11T07:11:52;45.63;;;17.45;;
69970;SDS011;57301;50.328;8.542;2024-01-11T07:14:19;45.57;;;17.83;;
69970;SDS011;57301;50.328;8.542;2024-01-11T07:16:46;51.85;;;18.65;;
69970;SDS011;57301;50.328;8.542;2024-01-11T07:19:13;43.20;;;16.73;;
69970;SDS011;57301;50.328;8.542;2024-01-11T07:21:40;53.92;;;21.13;;
69970;SDS011;57301;50.328;8.542;2024-01-11T07:24:06;42.10;;;17.95;;
69970;SDS011;57301;50.328;8.542;2024-01-11T07:26:36;47.00;;;18.03;;
69970;SDS011;57301;50.328;8.542;2024-01-11T07:29:02;41.08;;;16.35;;
69970;SDS011;57301;50.328;8.542;2024-01-11T07:31:29;49.53;;;19.13;;
69970;SDS011;57301;50.328;8.542;2024-01-11T07:33:56;51.30;;;18.95;;
69970;SDS011;57301;50.328;8.542;2024-01-11T07:36:22;51.83;;;19.52;;
69970;SDS011;57301;50.328;8.542;2024-01-11T07:38:49;42.87;;;16.97;;
69970;SDS011;57301;50.328;8.542;2024-01-11T07:41:15;49.45;;;17.83;;
69970;SDS011;57301;50.328;8.542;2024-01-11T07:43:42;49.72;;;20.23;;
69970;SDS011;57301;50.328;8.542;2024-01-11T07:46:19;55.33;;;21.90;;
69970;SDS011;57301;50.328;8.542;2024-01-11T07:48:58;54.35;;;20.08;;
69970;SDS011;57301;50.328;8.542;2024-01-11T07:51:25;51.57;;;20.83;;
69970;SDS011;57301;50.328;8.542;2024-01-11T07:53:53;53.97;;;20.33;;
69970;SDS011;57301;50.328;8.542;2024-01-11T07:56:19;54.20;;;19.52;;
69970;SDS011;57301;50.328;8.542;2024-01-11T07:58:46;53.63;;;21.83;;
69970;SDS011;57301;50.328;8.542;2024-01-11T08:01:15;48.67;;;19.58;;
69970;SDS011;57301;50.328;8.542;2024-01-11T08:03:42;41.00;;;16.57;;
69970;SDS011;57301;50.328;8.542;2024-01-11T08:06:11;42.03;;;17.10;;
69970;SDS011;57301;50.328;8.542;2024-01-11T08:08:38;46.30;;;17.40;;
69970;SDS011;57301;50.328;8.542;2024-01-11T08:11:09;44.92;;;15.70;;
69970;SDS011;57301;50.328;8.542;2024-01-11T08:13:38;41.17;;;14.43;;
69970;SDS011;57301;50.328;8.542;2024-01-11T08:16:05;53.27;;;18.73;;
69970;SDS011;57301;50.328;8.542;2024-01-11T08:18:35;47.55;;;20.13;;
69970;SDS011;57301;50.328;8.542;2024-01-11T08:21:02;48.40;;;20.20;;
69970;SDS011;57301;50.328;8.542;2024-01-11T08:23:33;49.75;;;19.45;;
69970;SDS011;57301;50.328;8.542;2024-01-11T08:25:59;34.58;;;14.35;;
69970;SDS011;57301;50.328;8.542;2024-01-11T08:28:26;51.20;;;19.07;;
69970;SDS011;57301;50.328;8.542;2024-01-11T08:30:53;38.10;;;17.13;;
69970;SDS011;57301;50.328;8.542;2024-01-11T08:33:19;51.60;;;18.27;;
69970;SDS011;57301;50.328;8.542;2024-01-11T08:35:46;55.83;;;22.92;;
69970;SDS011;57301;50.328;8.542;2024-01-11T08:38:13;49.97;;;21.20;;
69970;SDS011;57301;50.328;8.542;2024-01-11T08:40:40;54.20;;;23.17;;
69970;SDS011;57301;50.328;8.542;2024-01-11T08:43:06;45.03;;;20.73;;
69970;SDS011;57301;50.328;8.542;2024-01-11T08:45:33;53.13;;;21.90;;
69970;SDS011;57301;50.328;8.542;2024-01-11T08:47:59;49.72;;;19.98;;
69970;SDS011;57301;50.328;8.542;2024-01-11T08:50:27;51.97;;;22.55;;
69970;SDS011;57301;50.328;8.542;2024-01-11T08:52:54;53.53;;;22.63;;
69970;SDS011;57301;50.328;8.542;2024-01-11T08:55:22;53.40;;;21.95;;
69970;SDS011;57301;50.328;8.542;2024-01-11T08:57:48;51.45;;;22.00;;
69970;SDS011;57301;50.328;8.542;2024-01-11T09:00:15;48.05;;;20.88;;
69970;SDS011;57301;50.328;8.542;2024-01-11T09:02:44;47.97;;;22.10;;
69970;SDS011;57301;50.328;8.542;2024-01-11T09:05:13;50.97;;;21.90;;
69970;SDS011;57301;50.328;8.542;2024-01-11T09:07:41;49.65;;;22.98;;
69970;SDS011;57301;50.328;8.542;2024-01-11T09:10:08;49.33;;;22.92;;
69970;SDS011;57301;50.328;8.542;2024-01-11T09:12:35;53.70;;;23.98;;
69970;SDS011;57301;50.328;8.542;2024-01-11T09:15:02;60.58;;;26.55;;
69970;SDS011;57301;50.328;8.542;2024-01-11T09:17:29;54.87;;;24.37;;
69970;SDS011;57301;50.328;8.542;2024-01-11T09:19:56;50.13;;;21.73;;
69970;SDS011;57301;50.328;8.542;2024-01-11T09:22:23;56.45;;;23.52;;
69970;SDS011;57301;50.328;8.542;2024-01-11T09:24:49;44.72;;;21.30;;
69970;SDS011;57301;50.328;8.542;2024-01-11T09:27:16;49.28;;;22.83;;
69970;SDS011;57301;50.328;8.542;2024-01-11T09:29:43;54.87;;;24.80;;
69970;SDS011;57301;50.328;8.542;2024-01-11T09:32:11;53.35;;;25.95;;
69970;SDS011;57301;50.328;8.542;2024-01-11T09:34:38;57.40;;;24.40;;
69970;SDS011;57301;50.328;8.542;2024-01-11T09:37:05;51.92;;;24.55;;
69970;SDS011;57301;50.328;8.542;2024-01-11T09:39:32;50.67;;;23.63;;
69970;SDS011;57301;50.328;8.542;2024-01-11T09:42:01;53.67;;;24.60;;
69970;SDS011;57301;50.328;8.542;2024-01-11T09:44:37;52.42;;;22.88;;
69970;SDS011;57301;50.328;8.542;2024-01-11T09:47:05;50.00;;;23.52;;
69970;SDS011;57301;50.328;8.542;2024-01-11T09:49:36;46.55;;;22.35;;
69970;SDS011;57301;50.328;8.542;2024-01-11T09:52:04;45.45;;;20.88;;
69970;SDS011;57301;50.328;8.542;2024-01-11T09:54:31;48.33;;;21.73;;
69970;SDS011;57301;50.328;8.542;2024-01-11T09:56:58;49.17;;;21.50;;
69970;SDS011;57301;50.328;8.542;2024-01-11T09:59:26;45.72;;;22.30;;
69970;SDS011;57301;50.328;8.542;2024-01-11T10:01:53;46.13;;;21.50;;
69970;SDS011;57301;50.328;8.542;2024-01-11T10:04:19;48.17;;;23.33;;
69970;SDS011;57301;50.328;8.542;2024-01-11T10:06:46;47.53;;;21.40;;
69970;SDS011;57301;50.328;8.542;2024-01-11T10:09:14;48.65;;;21.85;;
69970;SDS011;57301;50.328;8.542;2024-01-11T10:11:40;44.67;;;21.50;;
69970;SDS011;57301;50.328;8.542;2024-01-11T10:14:07;45.08;;;22.08;;
69970;SDS011;57301;50.328;8.542;2024-01-11T10:16:34;47.45;;;22.45;;
69970;SDS011;57301;50.328;8.542;2024-01-11T10:19:01;45.03;;;19.93;;
69970;SDS011;57301;50.328;8.542;2024-01-11T10:21:28;41.50;;;20.58;;
69970;SDS011;57301;50.328;8.542;2024-01-11T10:23:57;44.97;;;21.13;;
69970;SDS011;57301;50.328;8.542;2024-01-11T10:26:25;42.95;;;19.85;;
69970;SDS011;57301;50.328;8.542;2024-01-11T10:28:52;40.80;;;20.25;;
69970;SDS011;57301;50.328;8.542;2024-01-11T10:31:18;38.37;;;18.80;;
69970;SDS011;57301;50.328;8.542;2024-01-11T10:33:50;41.55;;;20.48;;
69970;SDS011;57301;50.328;8.542;2024-01-11T10:36:20;40.03;;;20.15;;
69970;SDS011;57301;50.328;8.542;2024-01-11T10:38:47;40.13;;;20.40;;
69970;SDS011;57301;50.328;8.542;2024-01-11T10:41:16;41.50;;;20.42;;
69970;SDS011;57301;50.328;8.542;2024-01-11T10:43:46;43.77;;;20.07;;
69970;SDS011;57301;50.328;8.542;2024-01-11T10:46:15;40.25;;;19.95;;
69970;SDS011;57301;50.328;8.542;2024-01-11T10:48:48;39.45;;;19.90;;
69970;SDS011;57301;50.328;8.542;2024-01-11T10:51:20;36.55;;;18.75;;
69970;SDS011;57301;50.328;8.542;2024-01-11T10:53:50;38.83;;;19.50;;
69970;SDS011;57301;50.328;8.542;2024-01-11T10:56:17;43.07;;;20.03;;
69970;SDS011;57301;50.328;8.542;2024-01-11T10:58:46;37.88;;;20.20;;
69970;SDS011;57301;50.328;8.542;2024-01-11T11:01:13;35.47;;;19.30;;
69970;SDS011;57301;50.328;8.542;2024-01-11T11:03:43;39.33;;;19.00;;
69970;SDS011;57301;50.328;8.542;2024-01-11T11:06:11;35.85;;;18.48;;
69970;SDS011;57301;50.328;8.542;2024-01-11T11:08:39;38.93;;;19.50;;
69970;SDS011;57301;50.328;8.542;2024-01-11T11:11:06;42.17;;;20.98;;
69970;SDS011;57301;50.328;8.542;2024-01-11T11:13:37;39.85;;;21.25;;
69970;SDS011;57301;50.328;8.542;2024-01-11T11:16:05;35.58;;;19.27;;
69970;SDS011;57301;50.328;8.542;2024-01-11T11:18:34;36.08;;;18.95;;
69970;SDS011;57301;50.328;8.542;2024-01-11T11:21:10;33.87;;;18.80;;
69970;SDS011;57301;50.328;8.542;2024-01-11T11:23:40;32.95;;;18.35;;
69970;SDS011;57301;50.328;8.542;2024-01-11T11:26:07;39.85;;;20.35;;
69970;SDS011;57301;50.328;8.542;2024-01-11T11:28:42;38.15;;;19.33;;
69970;SDS011;57301;50.328;8.542;2024-01-11T11:31:12;33.05;;;18.90;;
69970;SDS011;57301;50.328;8.542;2024-01-11T11:33:40;34.43;;;18.87;;
69970;SDS011;57301;50.328;8.542;2024-01-11T11:36:09;32.63;;;17.52;;
69970;SDS011;57301;50.328;8.542;2024-01-11T11:38:39;31.85;;;18.58;;
69970;SDS011;57301;50.328;8.542;2024-01-11T11:41:06;33.28;;;18.65;;
69970;SDS011;57301;50.328;8.542;2024-01-11T11:43:33;32.28;;;18.25;;
69970;SDS011;57301;50.328;8.542;2024-01-11T11:46:01;31.17;;;17.67;;
69970;SDS011;57301;50.328;8.542;2024-01-11T11:51:14;35.53;;;18.70;;
69970;SDS011;57301;50.328;8.542;2024-01-11T11:53:46;29.98;;;16.90;;
69970;SDS011;57301;50.328;8.542;2024-01-11T11:56:18;31.08;;;16.73;;
69970;SDS011;57301;50.328;8.542;2024-01-11T11:58:51;30.80;;;16.90;;
69970;SDS011;57301;50.328;8.542;2024-01-11T12:01:22;29.83;;;15.48;;
69970;SDS011;57301;50.328;8.542;2024-01-11T12:03:49;26.58;;;15.43;;
69970;SDS011;57301;50.328;8.542;2024-01-11T12:06:19;28.52;;;16.20;;
69970;SDS011;57301;50.328;8.542;2024-01-11T12:08:49;21.95;;;12.65;;
69970;SDS011;57301;50.328;8.542;2024-01-11T12:11:20;24.63;;;13.47;;
69970;SDS011;57301;50.328;8.542;2024-01-11T12:13:48;21.77;;;13.32;;
69970;SDS011;57301;50.328;8.542;2024-01-11T12:16:16;24.30;;;13.85;;
69970;SDS011;57301;50.328;8.542;2024-01-11T12:18:42;24.40;;;13.02;;
69970;SDS011;57301;50.328;8.542;2024-01-11T12:21:09;26.02;;;13.93;;
69970;SDS011;57301;50.328;8.542;2024-01-11T12:23:36;29.10;;;16.00;;
69970;SDS011;57301;50.328;8.542;2024-01-11T12:26:08;27.25;;;15.23;;
69970;SDS011;57301;50.328;8.542;2024-01-11T12:28:40;27.25;;;15.23;;
69970;SDS011;57301;50.328;8.542;2024-01-11T12:31:08;25.55;;;15.25;;
69970;SDS011;57301;50.328;8.542;2024-01-11T12:33:35;27.60;;;15.82;;
69970;SDS011;57301;50.328;8.542;2024-01-11T12:36:05;28.83;;;15.53;;
69970;SDS011;57301;50.328;8.542;2024-01-11T12:38:33;26.27;;;15.65;;
69970;SDS011;57301;50.328;8.542;2024-01-11T12:41:00;27.25;;;15.30;;
69970;SDS011;57301;50.328;8.542;2024-01-11T12:43:27;29.63;;;15.55;;
69970;SDS011;57301;50.328;8.542;2024-01-11T12:45:53;24.50;;;14.18;;
69970;SDS011;57301;50.328;8.542;2024-01-11T12:48:21;24.27;;;14.27;;
69970;SDS011;57301;50.328;8.542;2024-01-11T12:50:48;27.08;;;14.43;;
69970;SDS011;57301;50.328;8.542;2024-01-11T12:53:14;22.67;;;13.95;;
69970;SDS011;57301;50.328;8.542;2024-01-11T12:55:48;25.05;;;13.82;;
69970;SDS011;57301;50.328;8.542;2024-01-11T12:58:29;24.42;;;14.65;;
69970;SDS011;57301;50.328;8.542;2024-01-11T13:00:55;24.53;;;14.03;;
69970;SDS011;57301;50.328;8.542;2024-01-11T13:03:24;24.38;;;14.50;;
69970;SDS011;57301;50.328;8.542;2024-01-11T13:05:51;20.50;;;12.48;;
69970;SDS011;57301;50.328;8.542;2024-01-11T13:08:17;22.55;;;12.70;;
69970;SDS011;57301;50.328;8.542;2024-01-11T13:10:49;22.83;;;13.32;;
69970;SDS011;57301;50.328;8.542;2024-01-11T13:13:16;24.20;;;13.33;;
69970;SDS011;57301;50.328;8.542;2024-01-11T13:15:45;24.27;;;12.23;;
69970;SDS011;57301;50.328;8.542;2024-01-11T13:18:15;20.95;;;13.00;;
69970;SDS011;57301;50.328;8.542;2024-01-11T13:20:41;18.83;;;11.77;;
69970;SDS011;57301;50.328;8.542;2024-01-11T13:23:16;18.85;;;11.45;;
69970;SDS011;57301;50.328;8.542;2024-01-11T13:25:46;21.10;;;12.17;;
69970;SDS011;57301;50.328;8.542;2024-01-11T13:28:16;21.20;;;11.32;;
69970;SDS011;57301;50.328;8.542;2024-01-11T13:30:48;22.65;;;12.68;;
69970;SDS011;57301;50.328;8.542;2024-01-11T13:33:15;21.63;;;12.18;;
69970;SDS011;57301;50.328;8.542;2024-01-11T13:35:44;20.13;;;11.25;;
69970;SDS011;57301;50.328;8.542;2024-01-11T13:38:16;19.87;;;11.40;;
69970;SDS011;57301;50.328;8.542;2024-01-11T13:40:42;20.38;;;11.15;;
69970;SDS011;57301;50.328;8.542;2024-01-11T13:43:09;21.35;;;10.98;;
69970;SDS011;57301;50.328;8.542;2024-01-11T13:45:36;19.88;;;11.48;;
69970;SDS011;57301;50.328;8.542;2024-01-11T13:48:03;19.15;;;11.40;;
69970;SDS011;57301;50.328;8.542;2024-01-11T13:50:31;18.33;;;11.03;;
69970;SDS011;57301;50.328;8.542;2024-01-11T13:52:59;18.65;;;10.27;;
69970;SDS011;57301;50.328;8.542;2024-01-11T13:55:26;16.52;;;9.77;;
69970;SDS011;57301;50.328;8.542;2024-01-11T13:57:53;14.30;;;7.93;;
69970;SDS011;57301;50.328;8.542;2024-01-11T14:00:20;10.23;;;5.80;;
69970;SDS011;57301;50.328;8.542;2024-01-11T14:02:47;8.27;;;4.30;;
69970;SDS011;57301;50.328;8.542;2024-01-11T14:05:14;6.57;;;4.03;;
69970;SDS011;57301;50.328;8.542;2024-01-11T14:07:44;8.95;;;4.55;;
69970;SDS011;57301;50.328;8.542;2024-01-11T14:10:14;7.15;;;3.95;;
69970;SDS011;57301;50.328;8.542;2024-01-11T14:12:41;7.32;;;4.18;;
69970;SDS011;57301;50.328;8.542;2024-01-11T14:15:08;6.93;;;4.00;;
69970;SDS011;57301;50.328;8.542;2024-01-11T14:17:39;7.72;;;4.22;;
69970;SDS011;57301;50.328;8.542;2024-01-11T14:20:07;7.75;;;4.53;;
69970;SDS011;57301;50.328;8.542;2024-01-11T14:22:40;9.10;;;4.35;;
69970;SDS011;57301;50.328;8.542;2024-01-11T14:25:08;6.55;;;3.80;;
69970;SDS011;57301;50.328;8.542;2024-01-11T14:27:37;8.40;;;3.80;;